CheckWX is a tool to help pilots better visualize weather data.  It is not intended as a substitute for an official pre-flight weather briefing.

06:10:25 UTC

KHWV METAR
Brookhaven Airport
Shirley, New York, USA
Current

14 mins ago

KHWV 230556Z AUTO 31007KT 10SM BKN020 BKN033 OVC040 13/12 A2995 RMK AO2 RAE51 SLP141 P0001 60011 T01280117 10128 20122 56007
Observed
Apr-23 @ 05:56 UTC
Wind
  • 310° at 7 KTS
Visibility
10 SM
Flight Rules
MVFR
Cloud Levels
  • Broken at 2,000' AGL
  • Broken at 3,300' AGL
  • Overcast at 4,000' AGL
Temperature
13°C / 55°F
Dewpoint
12°C / 54°F
Humidity
94%
Altimeter
29.95" Hg
Pressure
1014.22 hPa
Current Rain
0.01"
Previous

1 hour ago

KHWV 230456Z AUTO 34009KT 9SM -RA FEW045 OVC050 13/12 A2996 RMK AO2 SLP146 P0004 T01280117 401610089
Observed
Apr-23 @ 04:56 UTC
Wind
  • 340° at 9 KTS
Visibility
9 SM
Flight Rules
VFR
Conditions
Light Rain
Cloud Levels
  • Few at 4,500' AGL
  • Overcast at 5,000' AGL
Temperature
13°C / 55°F
Dewpoint
12°C / 54°F
Humidity
94%
Altimeter
29.96" Hg
Pressure
1014.52 hPa
Current Rain
0.04"
Previous

2 hours ago

KHWV 230432Z AUTO 33011KT 7SM RA SCT021 OVC047 13/11 A2997 RMK AO2 P0002 T01280111
Observed
Apr-23 @ 04:32 UTC
Wind
  • 330° at 11 KTS
Visibility
7 SM
Flight Rules
VFR
Conditions
Rain
Cloud Levels
  • Scattered at 2,100' AGL
  • Overcast at 4,700' AGL
Temperature
13°C / 55°F
Dewpoint
11°C / 52°F
Humidity
88%
Altimeter
29.97" Hg
Pressure
1014.92 hPa
Current Rain
0.02"